createdAt,value
2023-10-15T00:02:10.706Z,10.20
2023-10-15T00:04:37.327Z,10.20
2023-10-15T00:07:03.929Z,10.20
2023-10-15T00:09:30.519Z,10.20
2023-10-15T00:11:57.149Z,10.20
2023-10-15T00:14:23.932Z,10.30
2023-10-15T00:16:50.870Z,10.20
2023-10-15T00:19:17.602Z,10.20
2023-10-15T00:21:44.257Z,10.20
2023-10-15T00:24:10.854Z,10.20
2023-10-15T00:26:38.621Z,10.20
2023-10-15T00:29:05.671Z,10.20
2023-10-15T00:31:32.328Z,10.20
2023-10-15T00:33:58.949Z,10.10
2023-10-15T00:36:25.533Z,10.20
2023-10-15T00:38:52.519Z,10.10
2023-10-15T00:41:19.216Z,10.10
2023-10-15T00:43:53.264Z,10.20
2023-10-15T00:46:20.349Z,10.10
2023-10-15T00:48:47.340Z,10.00
2023-10-15T00:51:14.687Z,10.00
2023-10-15T00:53:45.021Z,10.00
2023-10-15T00:56:11.753Z,10.00
2023-10-15T00:58:38.481Z,9.90
2023-10-15T01:01:08.280Z,9.90
2023-10-15T01:03:35.035Z,9.80
2023-10-15T01:06:02.315Z,9.80
2023-10-15T01:08:28.943Z,9.80
2023-10-15T01:11:08.828Z,9.80
2023-10-15T01:13:35.904Z,9.70
2023-10-15T01:16:02.656Z,9.80
2023-10-15T01:18:29.283Z,9.80
2023-10-15T01:20:56.133Z,9.70
2023-10-15T01:23:22.761Z,9.70
2023-10-15T01:25:49.607Z,9.70
2023-10-15T01:28:16.242Z,9.80
2023-10-15T01:30:42.908Z,9.70
2023-10-15T01:33:09.554Z,9.70
2023-10-15T01:35:36.202Z,9.70
2023-10-15T01:38:04.164Z,9.70
2023-10-15T01:40:30.781Z,9.70
2023-10-15T01:42:57.400Z,9.60
2023-10-15T01:45:23.973Z,9.60
2023-10-15T01:47:50.661Z,9.60
2023-10-15T01:50:17.780Z,9.60
2023-10-15T01:52:44.490Z,9.60
2023-10-15T01:55:11.428Z,9.60
2023-10-15T01:57:38.226Z,9.50
2023-10-15T02:00:06.165Z,9.60
2023-10-15T02:02:33.053Z,9.60
2023-10-15T02:05:00.280Z,9.60
2023-10-15T02:07:27.279Z,9.60
2023-10-15T02:09:53.975Z,9.60
2023-10-15T02:12:20.602Z,9.60
2023-10-15T02:14:47.658Z,9.60
2023-10-15T02:17:15.124Z,9.50
2023-10-15T02:19:42.729Z,9.40
2023-10-15T02:22:10.798Z,9.40
2023-10-15T02:24:37.391Z,9.40
2023-10-15T02:27:04.020Z,9.40
2023-10-15T02:29:30.600Z,9.40
2023-10-15T02:31:57.254Z,9.40
2023-10-15T02:34:24.196Z,9.30
2023-10-15T02:36:51.021Z,9.40
2023-10-15T02:39:17.619Z,9.40
2023-10-15T02:41:44.254Z,9.50
2023-10-15T02:44:11.444Z,9.50
2023-10-15T02:46:38.158Z,9.40
2023-10-15T02:49:04.905Z,9.50
2023-10-15T02:51:31.493Z,9.50
2023-10-15T02:53:58.087Z,9.50
2023-10-15T02:56:24.847Z,9.50
2023-10-15T02:58:51.849Z,9.60
2023-10-15T03:01:18.778Z,9.50
2023-10-15T03:03:46.661Z,9.50
2023-10-15T03:06:13.239Z,9.50
2023-10-15T03:08:49.492Z,9.50
2023-10-15T03:11:17.074Z,9.50
2023-10-15T03:13:44.266Z,9.60
2023-10-15T03:16:10.900Z,9.60
2023-10-15T03:18:37.609Z,9.50
2023-10-15T03:21:04.196Z,9.60
2023-10-15T03:23:30.764Z,9.60
2023-10-15T03:25:57.718Z,9.60
2023-10-15T03:28:24.863Z,9.60
2023-10-15T03:30:51.741Z,9.60
2023-10-15T03:33:18.412Z,9.50
2023-10-15T03:35:45.030Z,9.50
2023-10-15T03:38:12.120Z,9.50
2023-10-15T03:40:38.747Z,9.50
2023-10-15T03:43:05.362Z,9.40
2023-10-15T03:45:36.732Z,9.50
2023-10-15T03:48:03.630Z,9.50
2023-10-15T03:50:30.268Z,9.50
2023-10-15T03:52:56.856Z,9.50
2023-10-15T03:55:23.619Z,9.60
2023-10-15T03:57:50.244Z,9.50
2023-10-15T04:00:17.176Z,9.50
2023-10-15T04:02:43.843Z,9.50
2023-10-15T04:05:10.564Z,9.50
2023-10-15T04:07:37.656Z,9.60
2023-10-15T04:10:04.575Z,9.50
2023-10-15T04:12:31.227Z,9.60
2023-10-15T04:14:58.313Z,9.60
2023-10-15T04:17:24.979Z,9.50
2023-10-15T04:19:51.700Z,9.50
2023-10-15T04:22:18.407Z,9.60
2023-10-15T04:24:45.948Z,9.60
2023-10-15T04:27:12.595Z,9.60
2023-10-15T04:29:39.212Z,9.60
2023-10-15T04:32:05.896Z,9.60
2023-10-15T04:34:33.166Z,9.60
2023-10-15T04:37:00.304Z,9.50
2023-10-15T04:39:46.921Z,9.50
2023-10-15T04:42:13.484Z,9.50
2023-10-15T04:44:40.107Z,9.50
2023-10-15T04:47:06.764Z,9.50
2023-10-15T04:49:33.492Z,9.50
2023-10-15T04:52:00.225Z,9.40
2023-10-15T04:54:27.037Z,9.40
2023-10-15T04:56:54.196Z,9.50
2023-10-15T04:59:20.843Z,9.40
2023-10-15T05:01:47.555Z,9.40
2023-10-15T05:04:14.194Z,9.30
2023-10-15T05:06:40.957Z,9.40
2023-10-15T05:09:07.654Z,9.40
2023-10-15T05:11:34.245Z,9.40
2023-10-15T05:14:00.889Z,9.40
2023-10-15T05:16:27.576Z,9.50
2023-10-15T05:18:54.265Z,9.40
2023-10-15T05:21:20.862Z,9.50
2023-10-15T05:23:47.456Z,9.50
2023-10-15T05:26:14.118Z,9.50
2023-10-15T05:28:40.741Z,9.50
2023-10-15T05:31:07.419Z,9.40
2023-10-15T05:33:34.116Z,9.40
2023-10-15T05:36:00.788Z,9.50
2023-10-15T05:38:27.427Z,9.40
2023-10-15T05:40:57.347Z,9.50
2023-10-15T05:43:24.124Z,9.50
2023-10-15T05:45:50.723Z,9.40
2023-10-15T05:48:17.317Z,9.40
2023-10-15T05:50:47.366Z,9.40
2023-10-15T05:53:14.004Z,9.50
2023-10-15T05:55:40.677Z,9.50
2023-10-15T05:58:07.342Z,9.50
2023-10-15T06:00:34.028Z,9.40
2023-10-15T06:03:00.700Z,9.40
2023-10-15T06:05:27.363Z,9.40
2023-10-15T06:07:53.957Z,9.40
2023-10-15T06:10:20.613Z,9.40
2023-10-15T06:12:47.264Z,9.40
2023-10-15T06:15:17.310Z,9.30
2023-10-15T06:17:45.496Z,9.30
2023-10-15T06:20:12.356Z,9.30
2023-10-15T06:22:43.117Z,9.30
2023-10-15T06:25:10.959Z,9.20
2023-10-15T06:27:37.819Z,9.20
2023-10-15T06:30:10.285Z,9.20
2023-10-15T06:32:36.954Z,9.20
2023-10-15T06:35:03.772Z,9.20
2023-10-15T06:37:30.490Z,9.20
2023-10-15T06:40:04.789Z,9.20
2023-10-15T06:42:38.103Z,9.20
2023-10-15T06:45:05.176Z,9.30
2023-10-15T06:47:31.920Z,9.30
2023-10-15T06:49:58.657Z,9.20
2023-10-15T06:52:25.307Z,9.20
2023-10-15T06:54:51.892Z,9.20
2023-10-15T06:57:18.596Z,9.30
2023-10-15T06:59:45.188Z,9.30
2023-10-15T07:02:12.650Z,9.30
2023-10-15T07:04:39.314Z,9.40
2023-10-15T07:07:05.977Z,9.50
2023-10-15T07:09:33.193Z,9.40
2023-10-15T07:11:59.870Z,9.50
2023-10-15T07:14:26.756Z,9.50
2023-10-15T07:16:53.696Z,9.60
2023-10-15T07:19:20.465Z,9.70
2023-10-15T07:21:47.123Z,9.60
2023-10-15T07:24:13.716Z,9.60
2023-10-15T07:26:40.359Z,9.70
2023-10-15T07:29:07.036Z,9.70
2023-10-15T07:31:33.791Z,9.80
2023-10-15T07:34:00.417Z,9.70
2023-10-15T07:36:27.697Z,9.80
2023-10-15T07:38:54.301Z,9.80
2023-10-15T07:41:21.050Z,9.80
2023-10-15T07:43:47.672Z,9.80
2023-10-15T07:46:15.324Z,9.90
2023-10-15T07:48:43.299Z,9.80
2023-10-15T07:51:09.905Z,9.70
2023-10-15T07:53:36.511Z,9.80
2023-10-15T07:56:06.524Z,9.70
2023-10-15T07:58:33.305Z,9.80
2023-10-15T08:01:12.226Z,9.60
2023-10-15T08:03:39.811Z,9.70
2023-10-15T08:06:06.818Z,9.80
2023-10-15T08:08:33.512Z,9.80
2023-10-15T08:11:00.157Z,9.50
2023-10-15T08:13:26.802Z,9.40
2023-10-15T08:15:55.954Z,9.30
2023-10-15T08:18:22.777Z,9.20
2023-10-15T08:20:49.402Z,9.20
2023-10-15T08:23:16.010Z,9.40
2023-10-15T08:25:42.705Z,9.30
2023-10-15T08:28:09.325Z,9.30
2023-10-15T08:30:35.986Z,9.40
2023-10-15T08:33:03.007Z,9.50
2023-10-15T08:35:29.740Z,9.40
2023-10-15T08:37:56.442Z,9.50
2023-10-15T08:40:23.190Z,9.60
2023-10-15T08:43:03.252Z,9.70
2023-10-15T08:45:32.380Z,9.90
2023-10-15T08:48:01.863Z,9.90
2023-10-15T08:50:29.637Z,10.20
2023-10-15T08:52:56.966Z,10.50
2023-10-15T08:55:24.689Z,10.70
2023-10-15T08:57:54.760Z,10.60
2023-10-15T09:00:30.976Z,10.60
2023-10-15T09:03:01.522Z,10.50
2023-10-15T09:05:28.952Z,10.60
2023-10-15T09:07:56.348Z,10.50
2023-10-15T09:10:23.386Z,10.40
2023-10-15T09:12:50.740Z,10.40
2023-10-15T09:15:18.572Z,10.30
2023-10-15T09:17:58.480Z,10.40
2023-10-15T09:20:25.897Z,10.20
2023-10-15T09:22:52.705Z,10.20
2023-10-15T09:25:19.332Z,10.10
2023-10-15T09:27:49.007Z,9.90
2023-10-15T09:30:16.084Z,10.10
2023-10-15T09:32:42.699Z,10.20
2023-10-15T09:35:10.041Z,10.40
2023-10-15T09:37:36.768Z,10.30
2023-10-15T09:40:03.618Z,10.40
2023-10-15T09:42:30.267Z,10.20
2023-10-15T09:44:56.892Z,10.30
2023-10-15T09:47:23.768Z,10.20
2023-10-15T09:49:51.142Z,10.40
2023-10-15T09:52:19.260Z,10.60
2023-10-15T09:54:49.534Z,10.90
2023-10-15T09:57:17.632Z,11.00
2023-10-15T09:59:44.321Z,11.10
2023-10-15T10:02:16.215Z,11.20
2023-10-15T10:05:18.098Z,11.00
2023-10-15T10:08:04.663Z,11.30
2023-10-15T10:10:49.142Z,10.90
2023-10-15T10:13:23.336Z,10.70
2023-10-15T10:15:56.214Z,10.40
2023-10-15T10:18:24.674Z,10.50
2023-10-15T10:20:51.731Z,10.40
2023-10-15T10:23:19.025Z,10.40
2023-10-15T10:25:49.638Z,10.30
2023-10-15T10:28:22.428Z,10.30
2023-10-15T10:30:56.284Z,10.40
2023-10-15T10:33:44.751Z,10.50
2023-10-15T10:36:21.625Z,10.30
2023-10-15T10:38:58.486Z,10.40
2023-10-15T10:41:36.180Z,10.50
2023-10-15T10:44:18.317Z,10.40
2023-10-15T10:46:49.785Z,10.50
2023-10-15T10:49:16.598Z,10.40
2023-10-15T10:51:44.404Z,10.50
2023-10-15T10:54:11.038Z,10.40
2023-10-15T10:56:40.622Z,10.40
2023-10-15T10:59:17.361Z,10.40
2023-10-15T11:01:45.383Z,10.40
2023-10-15T11:04:13.185Z,10.40
2023-10-15T11:06:41.142Z,10.40
2023-10-15T11:09:08.501Z,10.40
2023-10-15T11:11:35.101Z,10.40
2023-10-15T11:14:01.888Z,10.40
2023-10-15T11:16:28.622Z,10.30
2023-10-15T11:18:55.245Z,10.30
2023-10-15T11:21:22.407Z,10.30
2023-10-15T11:23:49.033Z,10.20
2023-10-15T11:26:15.700Z,10.20
2023-10-15T11:28:42.356Z,10.30
2023-10-15T11:31:09.096Z,10.20
2023-10-15T11:33:36.068Z,10.20
2023-10-15T11:36:02.689Z,10.20
2023-10-15T11:38:36.284Z,10.20
2023-10-15T11:41:03.958Z,10.20
2023-10-15T11:43:31.356Z,10.20
2023-10-15T11:45:58.260Z,10.20
2023-10-15T11:48:24.949Z,10.20
2023-10-15T11:50:51.586Z,10.30
2023-10-15T11:53:21.824Z,10.30
2023-10-15T11:55:48.771Z,10.30
2023-10-15T11:58:15.886Z,10.30
2023-10-15T12:00:42.635Z,10.30
2023-10-15T12:03:09.698Z,10.30
2023-10-15T12:05:36.679Z,10.50
2023-10-15T12:08:03.478Z,10.40
2023-10-15T12:10:30.856Z,10.40
2023-10-15T12:12:58.105Z,10.40
2023-10-15T12:15:24.714Z,10.50
2023-10-15T12:17:51.378Z,10.50
2023-10-15T12:20:20.344Z,10.50
2023-10-15T12:22:47.831Z,10.40
2023-10-15T12:25:14.546Z,10.30
2023-10-15T12:27:41.142Z,10.30
2023-10-15T12:30:08.465Z,10.20
2023-10-15T12:32:44.844Z,10.20
2023-10-15T12:35:12.530Z,10.20
2023-10-15T12:37:39.789Z,10.10
2023-10-15T12:40:07.070Z,10.00
2023-10-15T12:42:33.663Z,10.00
2023-10-15T12:45:00.263Z,9.90
2023-10-15T12:47:26.876Z,9.60
2023-10-15T12:49:53.568Z,9.50
2023-10-15T12:52:20.273Z,9.50
2023-10-15T12:54:46.836Z,9.50
2023-10-15T12:57:13.422Z,9.60
2023-10-15T12:59:40.008Z,9.60
2023-10-15T13:02:06.634Z,9.60
2023-10-15T13:04:33.332Z,9.70
2023-10-15T13:07:00.108Z,9.70
2023-10-15T13:09:26.703Z,9.70
2023-10-15T13:11:54.120Z,9.90
2023-10-15T13:14:20.824Z,10.00
2023-10-15T13:16:47.660Z,10.10
2023-10-15T13:19:14.264Z,10.30
2023-10-15T13:21:40.913Z,10.30
2023-10-15T13:24:07.939Z,10.30
2023-10-15T13:26:34.611Z,10.20
2023-10-15T13:29:01.225Z,10.20
2023-10-15T13:31:27.845Z,10.10
2023-10-15T13:33:54.446Z,10.10
2023-10-15T13:36:21.056Z,10.10
2023-10-15T13:38:48.747Z,10.10
2023-10-15T13:41:15.357Z,10.20
2023-10-15T13:43:42.074Z,10.40
2023-10-15T13:46:08.933Z,10.50
2023-10-15T13:48:35.527Z,10.70
2023-10-15T13:51:02.152Z,10.80
2023-10-15T13:53:28.760Z,11.00
2023-10-15T13:55:55.415Z,11.20
2023-10-15T13:58:22.037Z,11.30
2023-10-15T14:00:48.717Z,11.40
2023-10-15T14:03:15.622Z,11.50
2023-10-15T14:05:42.954Z,11.60
2023-10-15T14:08:10.115Z,11.70
2023-10-15T14:10:38.556Z,11.60
2023-10-15T14:13:17.457Z,11.80
2023-10-15T14:15:46.973Z,11.90
2023-10-15T14:18:13.653Z,12.00
2023-10-15T14:20:40.317Z,11.80
2023-10-15T14:23:06.988Z,11.80
2023-10-15T14:25:33.705Z,11.90
2023-10-15T14:28:00.305Z,11.90
2023-10-15T14:30:26.914Z,12.00
2023-10-15T14:32:53.544Z,11.80
2023-10-15T14:35:20.261Z,11.80
2023-10-15T14:37:46.939Z,11.90
2023-10-15T14:40:13.750Z,11.80
2023-10-15T14:42:40.372Z,11.90
2023-10-15T14:45:08.092Z,12.00
2023-10-15T14:47:34.812Z,12.10
2023-10-15T14:50:01.579Z,12.00
2023-10-15T14:52:28.251Z,11.80
2023-10-15T14:54:54.872Z,11.80
2023-10-15T14:57:21.486Z,11.60
2023-10-15T14:59:48.157Z,11.60
2023-10-15T15:02:14.823Z,11.70
2023-10-15T15:04:41.983Z,11.50
2023-10-15T15:07:08.571Z,11.50
2023-10-15T15:09:35.956Z,11.20
2023-10-15T15:12:02.677Z,11.20
2023-10-15T15:14:29.396Z,11.20
2023-10-15T15:16:56.109Z,11.20
2023-10-15T15:19:22.875Z,11.00
2023-10-15T15:21:49.482Z,11.10
2023-10-15T15:24:16.067Z,10.90
2023-10-15T15:26:43.599Z,10.90
2023-10-15T15:29:10.286Z,11.00
2023-10-15T15:31:37.015Z,11.10
2023-10-15T15:34:03.653Z,11.10
2023-10-15T15:36:30.355Z,10.90
2023-10-15T15:38:57.114Z,10.90
2023-10-15T15:41:23.703Z,10.80
2023-10-15T15:43:50.470Z,10.80
2023-10-15T15:46:17.157Z,10.70
2023-10-15T15:48:44.047Z,10.50
2023-10-15T15:51:10.656Z,10.40
2023-10-15T15:53:37.271Z,10.20
2023-10-15T15:56:04.505Z,10.10
2023-10-15T15:58:31.169Z,10.10
2023-10-15T16:00:57.879Z,10.10
2023-10-15T16:03:25.109Z,10.10
2023-10-15T16:06:00.453Z,10.00
2023-10-15T16:08:27.175Z,10.00
2023-10-15T16:10:53.870Z,10.00
2023-10-15T16:13:20.505Z,9.90
2023-10-15T16:15:47.098Z,9.90
2023-10-15T16:18:13.729Z,9.90
2023-10-15T16:20:40.474Z,9.90
2023-10-15T16:23:07.094Z,9.90
2023-10-15T16:25:33.729Z,9.90
2023-10-15T16:28:00.444Z,9.80
2023-10-15T16:30:27.102Z,9.80
2023-10-15T16:32:53.738Z,9.80
2023-10-15T16:35:20.421Z,9.70
2023-10-15T16:37:47.158Z,9.70
2023-10-15T16:40:13.810Z,9.60
2023-10-15T16:42:40.609Z,9.60
2023-10-15T16:45:07.593Z,9.60
2023-10-15T16:47:36.214Z,9.60
2023-10-15T16:50:03.947Z,9.50
2023-10-15T16:52:31.366Z,9.50
2023-10-15T16:54:58.140Z,9.40
2023-10-15T16:57:24.803Z,9.30
2023-10-15T16:59:54.616Z,9.20
2023-10-15T17:02:21.258Z,9.20
2023-10-15T17:04:48.160Z,9.00
2023-10-15T17:07:14.883Z,8.90
2023-10-15T17:09:41.544Z,8.80
2023-10-15T17:12:08.324Z,8.80
2023-10-15T17:14:34.935Z,8.80
2023-10-15T17:17:01.539Z,8.70
2023-10-15T17:19:28.163Z,8.60
2023-10-15T17:21:54.783Z,8.60
2023-10-15T17:24:21.407Z,8.60
2023-10-15T17:26:48.102Z,8.40
2023-10-15T17:29:14.705Z,8.40
2023-10-15T17:31:41.336Z,8.40
2023-10-15T17:34:08.011Z,8.40
2023-10-15T17:36:35.955Z,8.30
2023-10-15T17:39:16.361Z,8.30
2023-10-15T17:41:46.700Z,8.30
2023-10-15T17:44:13.653Z,8.10
2023-10-15T17:46:40.322Z,8.00
2023-10-15T17:49:07.932Z,7.90
2023-10-15T17:51:35.430Z,7.80
2023-10-15T17:54:02.072Z,7.70
2023-10-15T17:56:29.740Z,7.50
2023-10-15T17:58:56.338Z,7.60
2023-10-15T18:01:23.249Z,7.60
2023-10-15T18:03:50.382Z,7.70
2023-10-15T18:06:19.006Z,7.60
2023-10-15T18:08:47.177Z,7.60
2023-10-15T18:11:14.351Z,7.60
2023-10-15T18:13:41.589Z,7.60
2023-10-15T18:16:09.364Z,7.60
2023-10-15T18:18:36.565Z,7.60
2023-10-15T18:21:03.944Z,7.60
2023-10-15T18:23:30.644Z,7.50
2023-10-15T18:25:57.271Z,7.30
2023-10-15T18:28:24.094Z,7.20
2023-10-15T18:30:50.807Z,7.10
2023-10-15T18:33:17.560Z,7.00
2023-10-15T18:35:44.184Z,7.00
2023-10-15T18:38:10.935Z,7.00
2023-10-15T18:40:37.543Z,7.00
2023-10-15T18:43:04.340Z,6.90
2023-10-15T18:45:34.782Z,7.00
2023-10-15T18:48:01.406Z,6.90
2023-10-15T18:50:28.073Z,6.90
2023-10-15T18:52:54.680Z,6.90
2023-10-15T18:55:21.259Z,6.80
2023-10-15T18:57:47.864Z,6.80
2023-10-15T19:00:15.097Z,6.60
2023-10-15T19:02:42.018Z,6.50
2023-10-15T19:05:08.818Z,6.50
2023-10-15T19:07:35.715Z,6.60
2023-10-15T19:10:02.551Z,6.80
2023-10-15T19:12:29.215Z,6.70
2023-10-15T19:14:55.863Z,6.70
2023-10-15T19:17:22.446Z,6.80
2023-10-15T19:19:49.017Z,6.50
2023-10-15T19:22:15.638Z,6.30
2023-10-15T19:24:42.335Z,6.40
2023-10-15T19:27:11.367Z,6.30
2023-10-15T19:29:39.817Z,6.30
2023-10-15T19:32:06.425Z,6.30
2023-10-15T19:34:33.018Z,6.30
2023-10-15T19:36:59.636Z,6.40
2023-10-15T19:39:26.294Z,6.40
2023-10-15T19:41:52.930Z,6.40
2023-10-15T19:44:19.568Z,6.40
2023-10-15T19:46:46.220Z,6.40
2023-10-15T19:49:12.790Z,6.50
2023-10-15T19:51:39.476Z,6.50
2023-10-15T19:54:06.215Z,6.40
2023-10-15T19:56:32.863Z,6.40
2023-10-15T19:58:59.540Z,6.30
2023-10-15T20:01:26.183Z,6.30
2023-10-15T20:04:03.307Z,6.30
2023-10-15T20:06:33.494Z,6.20
2023-10-15T20:09:00.161Z,6.20
2023-10-15T20:11:27.072Z,6.10
2023-10-15T20:13:53.747Z,6.00
2023-10-15T20:16:20.494Z,5.90
2023-10-15T20:18:47.699Z,5.80
2023-10-15T20:21:14.616Z,5.80
2023-10-15T20:23:41.233Z,5.80
2023-10-15T20:26:10.168Z,5.80
2023-10-15T20:28:38.040Z,5.80
2023-10-15T20:31:04.841Z,5.80
2023-10-15T20:33:31.659Z,5.70
2023-10-15T20:35:58.306Z,5.60
2023-10-15T20:38:26.517Z,5.50
2023-10-15T20:40:54.047Z,5.40
2023-10-15T20:43:21.313Z,5.30
2023-10-15T20:45:48.158Z,5.20
2023-10-15T20:48:15.036Z,5.30
2023-10-15T20:50:41.795Z,5.40
2023-10-15T20:53:08.510Z,5.50
2023-10-15T20:55:35.314Z,5.50
2023-10-15T20:58:02.036Z,5.50
2023-10-15T21:00:28.746Z,5.50
2023-10-15T21:02:55.583Z,5.60
2023-10-15T21:05:22.396Z,5.60
2023-10-15T21:07:49.122Z,5.60
2023-10-15T21:10:16.182Z,5.50
2023-10-15T21:12:44.079Z,5.40
2023-10-15T21:15:11.215Z,5.30
2023-10-15T21:17:39.142Z,5.30
2023-10-15T21:20:07.432Z,5.30
2023-10-15T21:22:40.887Z,5.30
2023-10-15T21:25:09.611Z,5.10
2023-10-15T21:27:37.010Z,5.00
2023-10-15T21:30:07.351Z,4.80
2023-10-15T21:32:34.337Z,4.80
2023-10-15T21:35:02.324Z,4.80
2023-10-15T21:37:28.981Z,4.90
2023-10-15T21:39:55.665Z,4.90
2023-10-15T21:42:22.305Z,4.90
2023-10-15T21:44:48.912Z,4.80
2023-10-15T21:47:15.547Z,4.70
2023-10-15T21:49:42.154Z,4.70
2023-10-15T21:52:08.748Z,4.70
2023-10-15T21:54:35.425Z,4.70
2023-10-15T21:57:02.079Z,4.70
2023-10-15T21:59:28.662Z,4.70
2023-10-15T22:01:55.277Z,4.60
2023-10-15T22:04:21.869Z,4.50
2023-10-15T22:06:48.544Z,4.50
2023-10-15T22:09:15.330Z,4.50
2023-10-15T22:11:42.026Z,4.60
2023-10-15T22:14:08.651Z,4.60
2023-10-15T22:16:35.689Z,4.50
2023-10-15T22:19:03.114Z,4.50
2023-10-15T22:21:29.810Z,4.50
2023-10-15T22:23:56.489Z,4.50
2023-10-15T22:26:23.092Z,4.50
2023-10-15T22:28:52.938Z,4.60
2023-10-15T22:31:19.571Z,4.60
2023-10-15T22:33:46.237Z,4.60
2023-10-15T22:36:12.874Z,4.50
2023-10-15T22:38:39.868Z,4.40
2023-10-15T22:41:06.809Z,4.30
2023-10-15T22:43:33.547Z,4.10
2023-10-15T22:46:00.195Z,4.10
2023-10-15T22:48:26.829Z,4.20
2023-10-15T22:50:54.094Z,4.20
2023-10-15T22:53:20.845Z,4.10
2023-10-15T22:55:47.516Z,4.10
2023-10-15T22:58:14.483Z,4.10
2023-10-15T23:00:41.758Z,4.20
2023-10-15T23:03:08.798Z,4.20
2023-10-15T23:05:36.864Z,4.20
2023-10-15T23:08:04.530Z,4.20
2023-10-15T23:10:31.150Z,4.30
2023-10-15T23:12:58.058Z,4.10
2023-10-15T23:15:24.912Z,4.10
2023-10-15T23:17:52.798Z,4.00
2023-10-15T23:20:19.437Z,4.00
2023-10-15T23:22:46.612Z,4.00
2023-10-15T23:25:14.039Z,4.00
2023-10-15T23:27:41.437Z,4.00
2023-10-15T23:30:09.144Z,3.80
2023-10-15T23:32:35.789Z,3.80
2023-10-15T23:35:02.522Z,3.70
2023-10-15T23:37:29.178Z,3.70
2023-10-15T23:39:55.799Z,3.70
2023-10-15T23:42:22.439Z,3.70
2023-10-15T23:44:49.031Z,3.70
2023-10-15T23:47:15.695Z,3.70
2023-10-15T23:49:45.581Z,3.70
2023-10-15T23:52:12.536Z,3.80
2023-10-15T23:54:39.162Z,3.80
2023-10-15T23:57:05.784Z,3.80
2023-10-15T23:59:32.431Z,3.80
